sensor_id;sensor_type;location;lat;lon;timestamp;temperature;humidity
18888;DHT22;9576;47.792;9.628;2023-03-16T00:01:33;1.90;99.90
18888;DHT22;9576;47.792;9.628;2023-03-16T00:04:35;1.90;99.90
18888;DHT22;9576;47.792;9.628;2023-03-16T00:07:37;1.90;99.90
18888;DHT22;9576;47.792;9.628;2023-03-16T00:10:41;1.90;99.90
18888;DHT22;9576;47.792;9.628;2023-03-16T00:13:47;1.80;99.90
18888;DHT22;9576;47.792;9.628;2023-03-16T00:16:49;1.80;99.90
18888;DHT22;9576;47.792;9.628;2023-03-16T00:19:53;1.80;99.90
18888;DHT22;9576;47.792;9.628;2023-03-16T00:22:55;1.70;99.90
18888;DHT22;9576;47.792;9.628;2023-03-16T00:25:58;1.60;99.90
18888;DHT22;9576;47.792;9.628;2023-03-16T00:29:03;1.60;99.90
18888;DHT22;9576;47.792;9.628;2023-03-16T00:32:06;1.50;99.90
18888;DHT22;9576;47.792;9.628;2023-03-16T00:35:08;1.50;99.90
18888;DHT22;9576;47.792;9.628;2023-03-16T00:38:10;1.50;99.90
18888;DHT22;9576;47.792;9.628;2023-03-16T00:41:13;1.50;99.90
18888;DHT22;9576;47.792;9.628;2023-03-16T00:44:17;1.40;99.90
18888;DHT22;9576;47.792;9.628;2023-03-16T00:47:19;1.40;99.90
18888;DHT22;9576;47.792;9.628;2023-03-16T00:50:20;1.40;99.90
18888;DHT22;9576;47.792;9.628;2023-03-16T00:53:22;1.30;99.90
18888;DHT22;9576;47.792;9.628;2023-03-16T00:56:24;1.30;99.90
18888;DHT22;9576;47.792;9.628;2023-03-16T00:59:28;1.30;99.90
18888;DHT22;9576;47.792;9.628;2023-03-16T01:02:30;1.30;99.90
18888;DHT22;9576;47.792;9.628;2023-03-16T01:05:32;1.30;99.90
18888;DHT22;9576;47.792;9.628;2023-03-16T01:08:34;1.30;99.90
18888;DHT22;9576;47.792;9.628;2023-03-16T01:11:37;1.30;99.90
18888;DHT22;9576;47.792;9.628;2023-03-16T01:14:41;1.20;99.90
18888;DHT22;9576;47.792;9.628;2023-03-16T01:17:45;1.20;99.90
18888;DHT22;9576;47.792;9.628;2023-03-16T01:20:47;1.20;99.90
18888;DHT22;9576;47.792;9.628;2023-03-16T01:23:50;1.10;99.90
18888;DHT22;9576;47.792;9.628;2023-03-16T01:26:53;1.10;99.90
18888;DHT22;9576;47.792;9.628;2023-03-16T01:29:56;1.10;99.90
18888;DHT22;9576;47.792;9.628;2023-03-16T01:32:58;1.10;99.90
18888;DHT22;9576;47.792;9.628;2023-03-16T01:36:02;1.10;99.90
18888;DHT22;9576;47.792;9.628;2023-03-16T01:39:05;1.00;99.90
18888;DHT22;9576;47.792;9.628;2023-03-16T01:42:07;1.10;99.90
18888;DHT22;9576;47.792;9.628;2023-03-16T01:48:51;1.00;99.90
18888;DHT22;9576;47.792;9.628;2023-03-16T01:51:57;1.00;99.90
18888;DHT22;9576;47.792;9.628;2023-03-16T01:55:02;0.90;99.90
18888;DHT22;9576;47.792;9.628;2023-03-16T01:58:05;0.80;99.90
18888;DHT22;9576;47.792;9.628;2023-03-16T02:01:07;0.70;99.90
18888;DHT22;9576;47.792;9.628;2023-03-16T02:04:30;0.80;99.90
18888;DHT22;9576;47.792;9.628;2023-03-16T02:07:36;0.80;99.90
18888;DHT22;9576;47.792;9.628;2023-03-16T02:10:42;0.80;99.90
18888;DHT22;9576;47.792;9.628;2023-03-16T02:13:45;0.80;99.90
18888;DHT22;9576;47.792;9.628;2023-03-16T02:16:47;0.80;99.90
18888;DHT22;9576;47.792;9.628;2023-03-16T02:20:00;0.70;99.90
18888;DHT22;9576;47.792;9.628;2023-03-16T02:23:10;0.70;99.90
18888;DHT22;9576;47.792;9.628;2023-03-16T02:26:24;0.70;99.90
18888;DHT22;9576;47.792;9.628;2023-03-16T02:29:51;0.70;99.90
18888;DHT22;9576;47.792;9.628;2023-03-16T02:32:54;0.60;99.90
18888;DHT22;9576;47.792;9.628;2023-03-16T02:35:57;0.60;99.90
18888;DHT22;9576;47.792;9.628;2023-03-16T02:38:58;0.60;99.90
18888;DHT22;9576;47.792;9.628;2023-03-16T02:42:01;0.60;99.90
18888;DHT22;9576;47.792;9.628;2023-03-16T02:45:06;0.60;99.90
18888;DHT22;9576;47.792;9.628;2023-03-16T02:48:11;0.60;99.90
18888;DHT22;9576;47.792;9.628;2023-03-16T02:51:14;0.60;99.90
18888;DHT22;9576;47.792;9.628;2023-03-16T02:54:16;0.60;99.90
18888;DHT22;9576;47.792;9.628;2023-03-16T02:57:18;0.50;99.90
18888;DHT22;9576;47.792;9.628;2023-03-16T03:00:22;0.50;99.90
18888;DHT22;9576;47.792;9.628;2023-03-16T03:03:24;0.40;99.90
18888;DHT22;9576;47.792;9.628;2023-03-16T03:06:26;0.40;99.90
18888;DHT22;9576;47.792;9.628;2023-03-16T03:09:28;0.40;99.90
18888;DHT22;9576;47.792;9.628;2023-03-16T03:12:32;0.30;99.90
18888;DHT22;9576;47.792;9.628;2023-03-16T03:15:35;0.30;99.90
18888;DHT22;9576;47.792;9.628;2023-03-16T03:18:37;0.30;99.90
18888;DHT22;9576;47.792;9.628;2023-03-16T03:21:39;0.30;99.90
18888;DHT22;9576;47.792;9.628;2023-03-16T03:24:41;0.30;99.90
18888;DHT22;9576;47.792;9.628;2023-03-16T03:27:44;0.30;99.90
18888;DHT22;9576;47.792;9.628;2023-03-16T03:30:47;0.30;99.90
18888;DHT22;9576;47.792;9.628;2023-03-16T03:33:49;0.30;99.90
18888;DHT22;9576;47.792;9.628;2023-03-16T03:36:53;0.20;99.90
18888;DHT22;9576;47.792;9.628;2023-03-16T03:39:55;0.20;99.90
18888;DHT22;9576;47.792;9.628;2023-03-16T03:42:57;0.20;99.90
18888;DHT22;9576;47.792;9.628;2023-03-16T03:46:01;0.10;99.90
18888;DHT22;9576;47.792;9.628;2023-03-16T03:49:04;0.20;99.90
18888;DHT22;9576;47.792;9.628;2023-03-16T03:52:06;0.10;99.90
18888;DHT22;9576;47.792;9.628;2023-03-16T03:55:08;0.10;99.90
18888;DHT22;9576;47.792;9.628;2023-03-16T03:58:10;0.10;99.90
18888;DHT22;9576;47.792;9.628;2023-03-16T04:01:14;0.20;99.90
18888;DHT22;9576;47.792;9.628;2023-03-16T04:04:16;0.10;99.90
18888;DHT22;9576;47.792;9.628;2023-03-16T04:07:18;0.20;99.90
18888;DHT22;9576;47.792;9.628;2023-03-16T04:10:20;0.00;99.90
18888;DHT22;9576;47.792;9.628;2023-03-16T04:13:22;0.00;99.90
18888;DHT22;9576;47.792;9.628;2023-03-16T04:16:25;0.00;99.90
18888;DHT22;9576;47.792;9.628;2023-03-16T04:19:27;-0.10;99.90
18888;DHT22;9576;47.792;9.628;2023-03-16T04:22:29;-0.10;99.90
18888;DHT22;9576;47.792;9.628;2023-03-16T04:25:31;-0.20;99.90
18888;DHT22;9576;47.792;9.628;2023-03-16T04:28:34;-0.10;99.90
18888;DHT22;9576;47.792;9.628;2023-03-16T04:31:37;0.00;99.90
18888;DHT22;9576;47.792;9.628;2023-03-16T04:34:39;0.00;99.90
18888;DHT22;9576;47.792;9.628;2023-03-16T04:37:43;0.00;99.90
18888;DHT22;9576;47.792;9.628;2023-03-16T04:40:45;0.00;99.90
18888;DHT22;9576;47.792;9.628;2023-03-16T04:43:47;0.00;99.90
18888;DHT22;9576;47.792;9.628;2023-03-16T04:46:50;0.00;99.90
18888;DHT22;9576;47.792;9.628;2023-03-16T04:49:52;-0.10;99.90
18888;DHT22;9576;47.792;9.628;2023-03-16T04:52:55;-0.10;99.90
18888;DHT22;9576;47.792;9.628;2023-03-16T04:55:57;-0.20;99.90
18888;DHT22;9576;47.792;9.628;2023-03-16T04:58:59;-0.20;99.90
18888;DHT22;9576;47.792;9.628;2023-03-16T05:02:02;-0.20;99.90
18888;DHT22;9576;47.792;9.628;2023-03-16T05:05:05;-0.30;99.90
18888;DHT22;9576;47.792;9.628;2023-03-16T05:08:07;-0.20;99.90
18888;DHT22;9576;47.792;9.628;2023-03-16T05:11:10;-0.30;99.90
18888;DHT22;9576;47.792;9.628;2023-03-16T05:14:12;-0.20;99.90
18888;DHT22;9576;47.792;9.628;2023-03-16T05:17:15;-0.20;99.90
18888;DHT22;9576;47.792;9.628;2023-03-16T05:20:17;-0.20;99.90
18888;DHT22;9576;47.792;9.628;2023-03-16T05:23:21;-0.20;99.90
18888;DHT22;9576;47.792;9.628;2023-03-16T05:26:23;-0.20;99.90
18888;DHT22;9576;47.792;9.628;2023-03-16T05:29:26;-0.20;99.90
18888;DHT22;9576;47.792;9.628;2023-03-16T05:32:30;-0.20;99.90
18888;DHT22;9576;47.792;9.628;2023-03-16T05:35:32;-0.20;99.90
18888;DHT22;9576;47.792;9.628;2023-03-16T05:38:34;-0.30;99.90
18888;DHT22;9576;47.792;9.628;2023-03-16T05:41:36;-0.30;99.90
18888;DHT22;9576;47.792;9.628;2023-03-16T05:44:38;-0.40;99.90
18888;DHT22;9576;47.792;9.628;2023-03-16T05:47:42;-0.40;99.90
18888;DHT22;9576;47.792;9.628;2023-03-16T05:50:44;-0.40;99.90
18888;DHT22;9576;47.792;9.628;2023-03-16T05:53:47;-0.40;99.90
18888;DHT22;9576;47.792;9.628;2023-03-16T05:56:49;-0.40;99.90
18888;DHT22;9576;47.792;9.628;2023-03-16T05:59:51;-0.30;99.90
18888;DHT22;9576;47.792;9.628;2023-03-16T06:02:55;-0.20;99.90
18888;DHT22;9576;47.792;9.628;2023-03-16T06:05:57;-0.20;99.90
18888;DHT22;9576;47.792;9.628;2023-03-16T06:08:59;-0.20;99.90
18888;DHT22;9576;47.792;9.628;2023-03-16T06:12:01;-0.20;99.90
18888;DHT22;9576;47.792;9.628;2023-03-16T06:15:04;-0.20;99.90
18888;DHT22;9576;47.792;9.628;2023-03-16T06:18:08;-0.10;99.90
18888;DHT22;9576;47.792;9.628;2023-03-16T06:21:10;-0.30;99.90
18888;DHT22;9576;47.792;9.628;2023-03-16T06:24:12;-0.20;99.90
18888;DHT22;9576;47.792;9.628;2023-03-16T06:27:14;-0.20;99.90
18888;DHT22;9576;47.792;9.628;2023-03-16T06:30:16;-0.10;99.90
18888;DHT22;9576;47.792;9.628;2023-03-16T06:33:20;0.00;99.90
18888;DHT22;9576;47.792;9.628;2023-03-16T06:36:22;0.10;99.90
18888;DHT22;9576;47.792;9.628;2023-03-16T06:39:24;0.10;99.90
18888;DHT22;9576;47.792;9.628;2023-03-16T06:42:26;0.10;99.90
18888;DHT22;9576;47.792;9.628;2023-03-16T06:45:28;0.20;99.90
18888;DHT22;9576;47.792;9.628;2023-03-16T06:48:31;0.20;99.90
18888;DHT22;9576;47.792;9.628;2023-03-16T06:51:33;0.20;99.90
18888;DHT22;9576;47.792;9.628;2023-03-16T06:54:35;0.30;99.90
18888;DHT22;9576;47.792;9.628;2023-03-16T06:57:37;0.40;99.90
18888;DHT22;9576;47.792;9.628;2023-03-16T07:00:40;0.50;99.90
18888;DHT22;9576;47.792;9.628;2023-03-16T07:03:43;0.50;99.90
18888;DHT22;9576;47.792;9.628;2023-03-16T07:06:45;0.50;99.90
18888;DHT22;9576;47.792;9.628;2023-03-16T07:09:47;0.50;99.90
18888;DHT22;9576;47.792;9.628;2023-03-16T07:12:49;0.40;99.90
18888;DHT22;9576;47.792;9.628;2023-03-16T07:15:51;0.40;99.90
18888;DHT22;9576;47.792;9.628;2023-03-16T07:18:55;0.30;99.90
18888;DHT22;9576;47.792;9.628;2023-03-16T07:21:56;0.40;99.90
18888;DHT22;9576;47.792;9.628;2023-03-16T07:24:59;0.40;99.90
18888;DHT22;9576;47.792;9.628;2023-03-16T07:28:01;0.50;99.90
18888;DHT22;9576;47.792;9.628;2023-03-16T07:31:03;0.70;99.90
18888;DHT22;9576;47.792;9.628;2023-03-16T07:34:06;0.80;99.90
18888;DHT22;9576;47.792;9.628;2023-03-16T07:37:08;0.80;99.90
18888;DHT22;9576;47.792;9.628;2023-03-16T07:40:11;0.90;99.90
18888;DHT22;9576;47.792;9.628;2023-03-16T07:43:13;1.10;99.90
18888;DHT22;9576;47.792;9.628;2023-03-16T07:46:15;1.10;99.90
18888;DHT22;9576;47.792;9.628;2023-03-16T07:49:19;1.10;99.90
18888;DHT22;9576;47.792;9.628;2023-03-16T07:52:21;1.10;99.90
18888;DHT22;9576;47.792;9.628;2023-03-16T07:55:23;1.20;99.90
18888;DHT22;9576;47.792;9.628;2023-03-16T07:58:25;1.20;99.90
18888;DHT22;9576;47.792;9.628;2023-03-16T08:01:27;1.20;99.90
18888;DHT22;9576;47.792;9.628;2023-03-16T08:04:31;1.30;99.90
18888;DHT22;9576;47.792;9.628;2023-03-16T08:07:33;1.40;99.90
18888;DHT22;9576;47.792;9.628;2023-03-16T08:10:34;1.60;99.90
18888;DHT22;9576;47.792;9.628;2023-03-16T08:13:36;1.70;99.90
18888;DHT22;9576;47.792;9.628;2023-03-16T08:16:38;1.90;99.90
18888;DHT22;9576;47.792;9.628;2023-03-16T08:19:42;2.00;99.90
18888;DHT22;9576;47.792;9.628;2023-03-16T08:22:44;2.20;99.90
18888;DHT22;9576;47.792;9.628;2023-03-16T08:25:46;2.20;99.90
18888;DHT22;9576;47.792;9.628;2023-03-16T08:28:52;2.40;99.90
18888;DHT22;9576;47.792;9.628;2023-03-16T08:31:55;2.50;99.90
18888;DHT22;9576;47.792;9.628;2023-03-16T08:34:58;2.60;99.90
18888;DHT22;9576;47.792;9.628;2023-03-16T08:38:01;2.70;99.90
18888;DHT22;9576;47.792;9.628;2023-03-16T08:41:03;2.90;99.90
18888;DHT22;9576;47.792;9.628;2023-03-16T08:44:05;3.00;99.90
18888;DHT22;9576;47.792;9.628;2023-03-16T08:47:08;3.10;99.90
18888;DHT22;9576;47.792;9.628;2023-03-16T08:50:13;3.10;99.90
18888;DHT22;9576;47.792;9.628;2023-03-16T08:53:15;3.30;99.90
18888;DHT22;9576;47.792;9.628;2023-03-16T08:56:16;3.40;99.90
18888;DHT22;9576;47.792;9.628;2023-03-16T08:59:19;3.50;99.90
18888;DHT22;9576;47.792;9.628;2023-03-16T09:02:21;3.60;99.90
18888;DHT22;9576;47.792;9.628;2023-03-16T09:05:24;3.70;99.90
18888;DHT22;9576;47.792;9.628;2023-03-16T09:08:27;3.90;99.90
18888;DHT22;9576;47.792;9.628;2023-03-16T09:11:29;4.00;99.90
18888;DHT22;9576;47.792;9.628;2023-03-16T09:14:33;4.20;99.90
18888;DHT22;9576;47.792;9.628;2023-03-16T09:17:38;4.30;99.90
18888;DHT22;9576;47.792;9.628;2023-03-16T09:20:42;4.50;99.90
18888;DHT22;9576;47.792;9.628;2023-03-16T09:23:47;4.70;99.90
18888;DHT22;9576;47.792;9.628;2023-03-16T09:26:49;4.80;99.90
18888;DHT22;9576;47.792;9.628;2023-03-16T09:29:51;5.00;99.90
18888;DHT22;9576;47.792;9.628;2023-03-16T09:32:55;5.10;99.90
18888;DHT22;9576;47.792;9.628;2023-03-16T09:35:59;5.20;99.90
18888;DHT22;9576;47.792;9.628;2023-03-16T09:39:01;5.30;99.90
18888;DHT22;9576;47.792;9.628;2023-03-16T09:42:11;5.50;99.90
18888;DHT22;9576;47.792;9.628;2023-03-16T09:45:17;5.50;99.90
18888;DHT22;9576;47.792;9.628;2023-03-16T09:48:24;5.80;99.90
18888;DHT22;9576;47.792;9.628;2023-03-16T09:51:35;5.90;99.90
18888;DHT22;9576;47.792;9.628;2023-03-16T09:58:21;6.20;99.90
18888;DHT22;9576;47.792;9.628;2023-03-16T10:05:08;6.60;99.90
18888;DHT22;9576;47.792;9.628;2023-03-16T10:08:17;6.80;99.90
18888;DHT22;9576;47.792;9.628;2023-03-16T10:11:25;7.00;99.90
18888;DHT22;9576;47.792;9.628;2023-03-16T10:14:32;7.10;99.90
18888;DHT22;9576;47.792;9.628;2023-03-16T10:17:41;7.10;99.90
18888;DHT22;9576;47.792;9.628;2023-03-16T10:20:44;7.20;99.90
18888;DHT22;9576;47.792;9.628;2023-03-16T10:23:50;7.20;99.90
18888;DHT22;9576;47.792;9.628;2023-03-16T10:26:55;7.30;99.90
18888;DHT22;9576;47.792;9.628;2023-03-16T10:30:01;7.50;99.90
18888;DHT22;9576;47.792;9.628;2023-03-16T10:33:16;7.70;99.90
18888;DHT22;9576;47.792;9.628;2023-03-16T10:36:28;7.90;99.90
18888;DHT22;9576;47.792;9.628;2023-03-16T10:39:36;8.20;99.90
18888;DHT22;9576;47.792;9.628;2023-03-16T10:42:42;8.50;99.90
18888;DHT22;9576;47.792;9.628;2023-03-16T10:45:46;8.70;99.90
18888;DHT22;9576;47.792;9.628;2023-03-16T10:48:53;8.90;99.90
18888;DHT22;9576;47.792;9.628;2023-03-16T10:52:05;9.00;99.90
18888;DHT22;9576;47.792;9.628;2023-03-16T10:55:15;9.10;99.90
18888;DHT22;9576;47.792;9.628;2023-03-16T10:58:25;9.20;99.90
18888;DHT22;9576;47.792;9.628;2023-03-16T11:01:28;9.20;99.90
18888;DHT22;9576;47.792;9.628;2023-03-16T11:04:32;9.20;99.90
18888;DHT22;9576;47.792;9.628;2023-03-16T11:07:35;9.60;99.90
18888;DHT22;9576;47.792;9.628;2023-03-16T11:10:40;9.90;99.90
18888;DHT22;9576;47.792;9.628;2023-03-16T11:13:45;10.00;99.90
18888;DHT22;9576;47.792;9.628;2023-03-16T11:16:52;10.20;99.90
18888;DHT22;9576;47.792;9.628;2023-03-16T11:19:59;10.30;99.90
18888;DHT22;9576;47.792;9.628;2023-03-16T11:23:10;10.40;99.90
18888;DHT22;9576;47.792;9.628;2023-03-16T11:26:22;10.30;99.90
18888;DHT22;9576;47.792;9.628;2023-03-16T11:29:27;10.30;99.90
18888;DHT22;9576;47.792;9.628;2023-03-16T11:32:36;10.40;99.90
18888;DHT22;9576;47.792;9.628;2023-03-16T11:35:46;10.50;99.90
18888;DHT22;9576;47.792;9.628;2023-03-16T11:38:57;10.90;99.90
18888;DHT22;9576;47.792;9.628;2023-03-16T11:42:32;11.30;99.90
18888;DHT22;9576;47.792;9.628;2023-03-16T11:45:40;11.60;99.90
18888;DHT22;9576;47.792;9.628;2023-03-16T11:48:52;11.80;99.90
18888;DHT22;9576;47.792;9.628;2023-03-16T11:52:00;12.20;99.90
18888;DHT22;9576;47.792;9.628;2023-03-16T11:55:14;12.50;99.90
18888;DHT22;9576;47.792;9.628;2023-03-16T11:58:32;12.70;99.90
18888;DHT22;9576;47.792;9.628;2023-03-16T12:01:52;13.10;99.90
18888;DHT22;9576;47.792;9.628;2023-03-16T12:08:37;13.90;99.90
18888;DHT22;9576;47.792;9.628;2023-03-16T12:11:51;14.10;99.90
18888;DHT22;9576;47.792;9.628;2023-03-16T12:15:07;14.50;99.90
18888;DHT22;9576;47.792;9.628;2023-03-16T12:18:15;14.80;99.90
18888;DHT22;9576;47.792;9.628;2023-03-16T12:21:21;14.90;99.90
18888;DHT22;9576;47.792;9.628;2023-03-16T12:24:28;15.10;99.90
18888;DHT22;9576;47.792;9.628;2023-03-16T12:27:37;15.00;99.90
18888;DHT22;9576;47.792;9.628;2023-03-16T12:30:49;14.80;99.90
18888;DHT22;9576;47.792;9.628;2023-03-16T12:34:06;14.90;99.90
18888;DHT22;9576;47.792;9.628;2023-03-16T12:37:21;15.00;99.90
18888;DHT22;9576;47.792;9.628;2023-03-16T12:40:33;14.70;99.90
18888;DHT22;9576;47.792;9.628;2023-03-16T12:43:46;14.40;99.90
18888;DHT22;9576;47.792;9.628;2023-03-16T12:46:56;14.70;99.90
18888;DHT22;9576;47.792;9.628;2023-03-16T12:50:06;15.00;99.90
18888;DHT22;9576;47.792;9.628;2023-03-16T12:53:24;15.40;99.90
18888;DHT22;9576;47.792;9.628;2023-03-16T12:56:29;15.00;99.30
18888;DHT22;9576;47.792;9.628;2023-03-16T12:59:37;15.20;99.90
18888;DHT22;9576;47.792;9.628;2023-03-16T13:02:43;15.30;99.90
18888;DHT22;9576;47.792;9.628;2023-03-16T13:05:49;15.50;99.90
18888;DHT22;9576;47.792;9.628;2023-03-16T13:08:55;15.70;99.90
18888;DHT22;9576;47.792;9.628;2023-03-16T13:11:59;15.80;99.90
18888;DHT22;9576;47.792;9.628;2023-03-16T13:15:23;16.00;98.70
18888;DHT22;9576;47.792;9.628;2023-03-16T13:18:33;16.50;99.90
18888;DHT22;9576;47.792;9.628;2023-03-16T13:21:37;16.90;99.90
18888;DHT22;9576;47.792;9.628;2023-03-16T13:24:43;17.00;98.70
18888;DHT22;9576;47.792;9.628;2023-03-16T13:27:53;17.20;98.40
18888;DHT22;9576;47.792;9.628;2023-03-16T13:30:55;17.10;96.50
18888;DHT22;9576;47.792;9.628;2023-03-16T13:33:59;17.30;93.90
18888;DHT22;9576;47.792;9.628;2023-03-16T13:37:02;17.50;97.10
18888;DHT22;9576;47.792;9.628;2023-03-16T13:40:17;17.70;95.40
18888;DHT22;9576;47.792;9.628;2023-03-16T13:43:22;17.70;94.90
18888;DHT22;9576;47.792;9.628;2023-03-16T13:46:27;17.50;93.50
18888;DHT22;9576;47.792;9.628;2023-03-16T13:49:31;17.30;93.10
18888;DHT22;9576;47.792;9.628;2023-03-16T13:52:34;16.90;94.10
18888;DHT22;9576;47.792;9.628;2023-03-16T13:55:37;16.50;93.50
18888;DHT22;9576;47.792;9.628;2023-03-16T13:58:42;16.10;93.50
18888;DHT22;9576;47.792;9.628;2023-03-16T14:01:45;16.20;93.70
18888;DHT22;9576;47.792;9.628;2023-03-16T14:04:49;16.40;93.70
18888;DHT22;9576;47.792;9.628;2023-03-16T14:07:52;16.70;94.50
18888;DHT22;9576;47.792;9.628;2023-03-16T14:10:55;16.60;92.90
18888;DHT22;9576;47.792;9.628;2023-03-16T14:14:00;16.40;93.20
18888;DHT22;9576;47.792;9.628;2023-03-16T14:17:16;16.50;92.70
18888;DHT22;9576;47.792;9.628;2023-03-16T14:20:23;16.40;90.90
18888;DHT22;9576;47.792;9.628;2023-03-16T14:23:34;16.70;93.60
18888;DHT22;9576;47.792;9.628;2023-03-16T14:26:41;17.20;92.80
18888;DHT22;9576;47.792;9.628;2023-03-16T14:29:45;18.00;93.20
18888;DHT22;9576;47.792;9.628;2023-03-16T14:32:56;18.60;91.30
18888;DHT22;9576;47.792;9.628;2023-03-16T14:36:10;19.00;90.80
18888;DHT22;9576;47.792;9.628;2023-03-16T14:39:14;19.40;90.40
18888;DHT22;9576;47.792;9.628;2023-03-16T14:42:19;19.90;89.20
18888;DHT22;9576;47.792;9.628;2023-03-16T14:45:28;20.40;88.70
18888;DHT22;9576;47.792;9.628;2023-03-16T14:48:31;21.10;83.70
18888;DHT22;9576;47.792;9.628;2023-03-16T14:51:38;21.60;86.70
18888;DHT22;9576;47.792;9.628;2023-03-16T14:54:41;21.70;84.30
18888;DHT22;9576;47.792;9.628;2023-03-16T14:57:43;21.40;83.00
18888;DHT22;9576;47.792;9.628;2023-03-16T15:00:46;21.60;80.90
18888;DHT22;9576;47.792;9.628;2023-03-16T15:03:48;21.40;81.80
18888;DHT22;9576;47.792;9.628;2023-03-16T15:06:51;21.80;80.60
18888;DHT22;9576;47.792;9.628;2023-03-16T15:09:55;22.20;81.30
18888;DHT22;9576;47.792;9.628;2023-03-16T15:12:59;22.40;78.60
18888;DHT22;9576;47.792;9.628;2023-03-16T15:16:16;22.10;77.70
18888;DHT22;9576;47.792;9.628;2023-03-16T15:19:18;21.70;74.10
18888;DHT22;9576;47.792;9.628;2023-03-16T15:22:25;21.30;74.00
18888;DHT22;9576;47.792;9.628;2023-03-16T15:25:32;21.80;73.40
18888;DHT22;9576;47.792;9.628;2023-03-16T15:28:36;21.50;73.90
18888;DHT22;9576;47.792;9.628;2023-03-16T15:31:38;21.60;70.80
18888;DHT22;9576;47.792;9.628;2023-03-16T15:34:40;21.90;70.20
18888;DHT22;9576;47.792;9.628;2023-03-16T15:37:44;21.30;71.90
18888;DHT22;9576;47.792;9.628;2023-03-16T15:40:46;20.90;69.40
18888;DHT22;9576;47.792;9.628;2023-03-16T15:43:50;20.40;71.50
18888;DHT22;9576;47.792;9.628;2023-03-16T15:46:52;20.10;73.40
18888;DHT22;9576;47.792;9.628;2023-03-16T15:49:55;19.50;75.60
18888;DHT22;9576;47.792;9.628;2023-03-16T15:53:01;19.00;76.60
18888;DHT22;9576;47.792;9.628;2023-03-16T15:56:07;18.90;77.90
18888;DHT22;9576;47.792;9.628;2023-03-16T15:59:12;19.00;77.20
18888;DHT22;9576;47.792;9.628;2023-03-16T16:02:24;19.20;74.90
18888;DHT22;9576;47.792;9.628;2023-03-16T16:05:28;19.40;76.70
18888;DHT22;9576;47.792;9.628;2023-03-16T16:08:31;19.70;71.90
18888;DHT22;9576;47.792;9.628;2023-03-16T16:11:33;20.00;70.70
18888;DHT22;9576;47.792;9.628;2023-03-16T16:14:35;20.40;71.80
18888;DHT22;9576;47.792;9.628;2023-03-16T16:17:37;20.90;68.60
18888;DHT22;9576;47.792;9.628;2023-03-16T16:20:39;20.90;67.90
18888;DHT22;9576;47.792;9.628;2023-03-16T16:23:43;20.80;70.60
18888;DHT22;9576;47.792;9.628;2023-03-16T16:26:46;20.30;67.70
18888;DHT22;9576;47.792;9.628;2023-03-16T16:29:48;20.00;72.10
18888;DHT22;9576;47.792;9.628;2023-03-16T16:32:51;19.60;72.20
18888;DHT22;9576;47.792;9.628;2023-03-16T16:35:55;19.30;73.60
18888;DHT22;9576;47.792;9.628;2023-03-16T16:38:58;18.70;71.50
18888;DHT22;9576;47.792;9.628;2023-03-16T16:42:00;18.10;73.00
18888;DHT22;9576;47.792;9.628;2023-03-16T16:45:03;17.50;75.50
18888;DHT22;9576;47.792;9.628;2023-03-16T16:48:20;16.80;75.90
18888;DHT22;9576;47.792;9.628;2023-03-16T16:51:25;16.30;78.30
18888;DHT22;9576;47.792;9.628;2023-03-16T16:54:30;15.50;77.20
18888;DHT22;9576;47.792;9.628;2023-03-16T16:57:32;14.80;75.90
18888;DHT22;9576;47.792;9.628;2023-03-16T17:00:34;14.40;78.40
18888;DHT22;9576;47.792;9.628;2023-03-16T17:03:37;14.00;80.20
18888;DHT22;9576;47.792;9.628;2023-03-16T17:06:39;13.70;80.50
18888;DHT22;9576;47.792;9.628;2023-03-16T17:09:43;13.60;80.50
18888;DHT22;9576;47.792;9.628;2023-03-16T17:12:45;13.30;80.90
18888;DHT22;9576;47.792;9.628;2023-03-16T17:15:47;13.20;81.70
18888;DHT22;9576;47.792;9.628;2023-03-16T17:18:49;13.10;80.10
18888;DHT22;9576;47.792;9.628;2023-03-16T17:21:53;13.20;85.80
18888;DHT22;9576;47.792;9.628;2023-03-16T17:24:58;13.10;91.70
18888;DHT22;9576;47.792;9.628;2023-03-16T17:27:59;12.90;92.50
18888;DHT22;9576;47.792;9.628;2023-03-16T17:31:03;12.60;92.40
18888;DHT22;9576;47.792;9.628;2023-03-16T17:34:14;12.40;93.90
18888;DHT22;9576;47.792;9.628;2023-03-16T17:37:18;12.20;96.00
18888;DHT22;9576;47.792;9.628;2023-03-16T17:40:23;11.90;97.00
18888;DHT22;9576;47.792;9.628;2023-03-16T17:43:27;11.60;98.10
18888;DHT22;9576;47.792;9.628;2023-03-16T17:46:31;11.40;99.10
18888;DHT22;9576;47.792;9.628;2023-03-16T17:49:33;11.20;99.90
18888;DHT22;9576;47.792;9.628;2023-03-16T17:52:35;11.00;99.90
18888;DHT22;9576;47.792;9.628;2023-03-16T17:55:39;10.70;99.90
18888;DHT22;9576;47.792;9.628;2023-03-16T17:58:41;10.60;99.90
18888;DHT22;9576;47.792;9.628;2023-03-16T18:01:45;10.40;99.90
18888;DHT22;9576;47.792;9.628;2023-03-16T18:04:47;10.20;99.90
18888;DHT22;9576;47.792;9.628;2023-03-16T18:07:50;10.00;99.90
18888;DHT22;9576;47.792;9.628;2023-03-16T18:10:55;9.90;99.90
18888;DHT22;9576;47.792;9.628;2023-03-16T18:13:57;9.70;99.90
18888;DHT22;9576;47.792;9.628;2023-03-16T18:17:00;9.60;99.90
18888;DHT22;9576;47.792;9.628;2023-03-16T18:20:03;9.50;99.90
18888;DHT22;9576;47.792;9.628;2023-03-16T18:23:14;9.40;99.90
18888;DHT22;9576;47.792;9.628;2023-03-16T18:26:17;9.30;99.90
18888;DHT22;9576;47.792;9.628;2023-03-16T18:29:19;9.20;99.90
18888;DHT22;9576;47.792;9.628;2023-03-16T18:32:24;9.10;99.90
18888;DHT22;9576;47.792;9.628;2023-03-16T18:35:26;9.00;99.90
18888;DHT22;9576;47.792;9.628;2023-03-16T18:38:30;8.90;99.90
18888;DHT22;9576;47.792;9.628;2023-03-16T18:41:34;8.80;99.90
18888;DHT22;9576;47.792;9.628;2023-03-16T18:44:36;8.70;99.90
18888;DHT22;9576;47.792;9.628;2023-03-16T18:47:40;8.60;99.90
18888;DHT22;9576;47.792;9.628;2023-03-16T18:50:43;8.60;99.90
18888;DHT22;9576;47.792;9.628;2023-03-16T18:53:46;8.40;99.90
18888;DHT22;9576;47.792;9.628;2023-03-16T18:56:49;8.30;99.90
18888;DHT22;9576;47.792;9.628;2023-03-16T18:59:52;8.10;99.90
18888;DHT22;9576;47.792;9.628;2023-03-16T19:02:56;8.10;99.90
18888;DHT22;9576;47.792;9.628;2023-03-16T19:06:00;8.00;99.90
18888;DHT22;9576;47.792;9.628;2023-03-16T19:09:05;7.90;99.90
18888;DHT22;9576;47.792;9.628;2023-03-16T19:12:14;7.90;99.90
18888;DHT22;9576;47.792;9.628;2023-03-16T19:15:19;7.70;99.90
18888;DHT22;9576;47.792;9.628;2023-03-16T19:18:21;7.60;99.90
18888;DHT22;9576;47.792;9.628;2023-03-16T19:21:25;7.60;99.90
18888;DHT22;9576;47.792;9.628;2023-03-16T19:24:30;7.50;99.90
18888;DHT22;9576;47.792;9.628;2023-03-16T19:27:34;7.50;99.90
18888;DHT22;9576;47.792;9.628;2023-03-16T19:30:37;7.40;99.90
18888;DHT22;9576;47.792;9.628;2023-03-16T19:33:39;7.40;99.90
18888;DHT22;9576;47.792;9.628;2023-03-16T19:36:41;7.30;99.90
18888;DHT22;9576;47.792;9.628;2023-03-16T19:39:43;7.20;99.90
18888;DHT22;9576;47.792;9.628;2023-03-16T19:42:47;7.00;99.90
18888;DHT22;9576;47.792;9.628;2023-03-16T19:45:51;7.00;99.90
18888;DHT22;9576;47.792;9.628;2023-03-16T19:48:55;6.90;99.90
18888;DHT22;9576;47.792;9.628;2023-03-16T19:51:57;6.80;99.90
18888;DHT22;9576;47.792;9.628;2023-03-16T19:54:59;6.80;99.90
18888;DHT22;9576;47.792;9.628;2023-03-16T19:58:04;6.70;99.90
18888;DHT22;9576;47.792;9.628;2023-03-16T20:01:12;6.70;99.90
18888;DHT22;9576;47.792;9.628;2023-03-16T20:04:17;6.70;99.90
18888;DHT22;9576;47.792;9.628;2023-03-16T20:07:19;6.60;99.90
18888;DHT22;9576;47.792;9.628;2023-03-16T20:10:23;6.50;99.90